sensor_id;sensor_type;location;lat;lon;timestamp;pressure;altitude;pressure_sealevel;temperature;humidity
6198;BME280;3132;42.622;23.328;2022-09-09T00:00:15;93093.84;;;16.13;96.26
6198;BME280;3132;42.622;23.328;2022-09-09T00:03:07;93083.97;;;16.19;96.28
6198;BME280;3132;42.622;23.328;2022-09-09T00:08:26;93091.94;;;16.27;95.84
6198;BME280;3132;42.622;23.328;2022-09-09T00:10:58;93097.06;;;16.32;95.20
6198;BME280;3132;42.622;23.328;2022-09-09T00:13:48;93088.59;;;16.13;96.47
6198;BME280;3132;42.622;23.328;2022-09-09T00:16:21;93094.38;;;16.24;96.51
6198;BME280;3132;42.622;23.328;2022-09-09T00:21:28;93085.00;;;16.09;96.32
6198;BME280;3132;42.622;23.328;2022-09-09T00:23:57;93094.56;;;16.27;96.32
6198;BME280;3132;42.622;23.328;2022-09-09T00:31:34;93079.47;;;16.19;96.16
6198;BME280;3132;42.622;23.328;2022-09-09T00:34:12;93077.25;;;16.13;97.34
6198;BME280;3132;42.622;23.328;2022-09-09T00:36:39;93068.81;;;16.02;97.84
6198;BME280;3132;42.622;23.328;2022-09-09T00:39:31;93059.59;;;15.91;98.80
6198;BME280;3132;42.622;23.328;2022-09-09T00:42:16;93062.34;;;16.08;97.65
6198;BME280;3132;42.622;23.328;2022-09-09T00:53:01;93058.19;;;16.07;97.04
6198;BME280;3132;42.622;23.328;2022-09-09T00:56:24;93055.31;;;16.17;96.61
6198;BME280;3132;42.622;23.328;2022-09-09T00:58:23;93040.69;;;16.11;96.70
6198;BME280;3132;42.622;23.328;2022-09-09T01:06:22;93052.38;;;15.96;98.16
6198;BME280;3132;42.622;23.328;2022-09-09T01:11:25;93055.78;;;15.97;98.20
6198;BME280;3132;42.622;23.328;2022-09-09T01:14:01;93060.94;;;16.02;97.76
6198;BME280;3132;42.622;23.328;2022-09-09T01:16:29;93056.63;;;16.06;97.50
6198;BME280;3132;42.622;23.328;2022-09-09T01:18:58;93055.47;;;15.98;97.44
6198;BME280;3132;42.622;23.328;2022-09-09T01:21:42;93061.19;;;15.92;97.55
6198;BME280;3132;42.622;23.328;2022-09-09T01:26:46;93045.72;;;15.99;97.51
6198;BME280;3132;42.622;23.328;2022-09-09T01:29:14;93055.84;;;16.05;96.92
6198;BME280;3132;42.622;23.328;2022-09-09T01:32:01;93047.88;;;15.97;97.85
6198;BME280;3132;42.622;23.328;2022-09-09T01:34:31;93036.81;;;15.86;97.24
6198;BME280;3132;42.622;23.328;2022-09-09T01:37:10;93054.59;;;16.03;96.89
6198;BME280;3132;42.622;23.328;2022-09-09T01:39:38;93055.84;;;16.05;96.70
6198;BME280;3132;42.622;23.328;2022-09-09T01:42:06;93064.66;;;16.01;97.29
6198;BME280;3132;42.622;23.328;2022-09-09T01:44:34;93059.38;;;16.01;96.25
6198;BME280;3132;42.622;23.328;2022-09-09T01:47:00;93071.03;;;16.08;96.27
6198;BME280;3132;42.622;23.328;2022-09-09T01:49:25;93061.63;;;16.16;95.99
6198;BME280;3132;42.622;23.328;2022-09-09T01:51:55;93071.16;;;16.03;96.52
6198;BME280;3132;42.622;23.328;2022-09-09T01:54:23;93057.69;;;15.83;97.05
6198;BME280;3132;42.622;23.328;2022-09-09T02:03:02;93078.03;;;15.91;97.76
6198;BME280;3132;42.622;23.328;2022-09-09T02:05:37;93074.31;;;16.14;96.34
6198;BME280;3132;42.622;23.328;2022-09-09T02:11:27;93066.19;;;15.80;98.31
6198;BME280;3132;42.622;23.328;2022-09-09T02:14:00;93054.47;;;15.64;98.84
6198;BME280;3132;42.622;23.328;2022-09-09T02:21:28;93032.44;;;15.60;98.37
6198;BME280;3132;42.622;23.328;2022-09-09T02:23:55;93045.97;;;15.67;98.78
6198;BME280;3132;42.622;23.328;2022-09-09T02:26:23;93041.78;;;15.66;98.71
6198;BME280;3132;42.622;23.328;2022-09-09T02:28:50;93043.25;;;15.58;99.37
6198;BME280;3132;42.622;23.328;2022-09-09T02:31:18;93037.53;;;15.56;99.69
6198;BME280;3132;42.622;23.328;2022-09-09T02:33:50;93046.63;;;15.72;99.09
6198;BME280;3132;42.622;23.328;2022-09-09T02:36:18;93047.47;;;15.59;98.97
6198;BME280;3132;42.622;23.328;2022-09-09T02:38:47;93046.09;;;15.62;98.84
6198;BME280;3132;42.622;23.328;2022-09-09T02:41:18;93058.34;;;15.66;99.07
6198;BME280;3132;42.622;23.328;2022-09-09T02:43:45;93065.00;;;15.64;98.54
6198;BME280;3132;42.622;23.328;2022-09-09T02:49:04;93076.97;;;15.70;98.05
6198;BME280;3132;42.622;23.328;2022-09-09T02:52:06;93070.97;;;15.56;98.65
6198;BME280;3132;42.622;23.328;2022-09-09T02:54:34;93069.38;;;15.55;98.72
6198;BME280;3132;42.622;23.328;2022-09-09T02:57:30;93082.69;;;15.50;99.10
6198;BME280;3132;42.622;23.328;2022-09-09T02:59:58;93069.81;;;15.35;100.00
6198;BME280;3132;42.622;23.328;2022-09-09T03:02:23;93070.13;;;15.47;99.87
6198;BME280;3132;42.622;23.328;2022-09-09T03:04:49;93055.31;;;15.37;99.32
6198;BME280;3132;42.622;23.328;2022-09-09T03:07:18;93055.09;;;15.34;99.49
6198;BME280;3132;42.622;23.328;2022-09-09T03:09:44;93061.34;;;15.38;100.00
6198;BME280;3132;42.622;23.328;2022-09-09T03:12:10;93063.00;;;15.34;100.00
6198;BME280;3132;42.622;23.328;2022-09-09T03:14:36;93058.13;;;15.27;99.87
6198;BME280;3132;42.622;23.328;2022-09-09T03:17:04;93088.50;;;15.33;100.00
6198;BME280;3132;42.622;23.328;2022-09-09T03:19:30;93088.22;;;15.35;100.00
6198;BME280;3132;42.622;23.328;2022-09-09T03:21:55;93035.13;;;14.97;100.00
6198;BME280;3132;42.622;23.328;2022-09-09T03:24:21;93073.44;;;15.25;100.00
6198;BME280;3132;42.622;23.328;2022-09-09T03:26:48;93070.53;;;15.27;100.00
6198;BME280;3132;42.622;23.328;2022-09-09T03:29:13;93066.13;;;15.36;99.84
6198;BME280;3132;42.622;23.328;2022-09-09T03:31:39;93072.97;;;15.23;100.00
6198;BME280;3132;42.622;23.328;2022-09-09T03:34:05;93071.97;;;15.19;100.00
6198;BME280;3132;42.622;23.328;2022-09-09T03:36:31;93074.59;;;15.33;99.58
6198;BME280;3132;42.622;23.328;2022-09-09T03:38:56;93064.88;;;15.20;100.00
6198;BME280;3132;42.622;23.328;2022-09-09T03:41:23;93044.16;;;15.05;100.00
6198;BME280;3132;42.622;23.328;2022-09-09T03:43:53;93070.72;;;15.17;100.00
6198;BME280;3132;42.622;23.328;2022-09-09T03:46:23;93073.44;;;15.25;100.00
6198;BME280;3132;42.622;23.328;2022-09-09T03:48:49;93050.47;;;15.04;100.00
6198;BME280;3132;42.622;23.328;2022-09-09T03:51:15;93066.41;;;15.21;100.00
6198;BME280;3132;42.622;23.328;2022-09-09T03:53:41;93062.34;;;15.15;100.00
6198;BME280;3132;42.622;23.328;2022-09-09T03:56:07;93056.13;;;15.11;100.00
6198;BME280;3132;42.622;23.328;2022-09-09T03:58:34;93069.78;;;15.13;100.00
6198;BME280;3132;42.622;23.328;2022-09-09T04:01:03;93071.13;;;15.10;100.00
6198;BME280;3132;42.622;23.328;2022-09-09T04:03:29;93053.81;;;14.96;100.00
6198;BME280;3132;42.622;23.328;2022-09-09T04:05:56;93081.75;;;15.19;100.00
6198;BME280;3132;42.622;23.328;2022-09-09T04:08:23;93071.47;;;15.31;100.00
6198;BME280;3132;42.622;23.328;2022-09-09T04:10:50;93064.19;;;15.28;100.00
6198;BME280;3132;42.622;23.328;2022-09-09T04:13:16;93072.16;;;15.50;99.77
6198;BME280;3132;42.622;23.328;2022-09-09T04:15:43;93070.84;;;15.61;98.05
6198;BME280;3132;42.622;23.328;2022-09-09T04:18:09;93089.97;;;15.53;99.00
6198;BME280;3132;42.622;23.328;2022-09-09T04:20:34;93079.25;;;15.49;99.87
6198;BME280;3132;42.622;23.328;2022-09-09T04:23:00;93060.19;;;15.44;100.00
6198;BME280;3132;42.622;23.328;2022-09-09T04:25:26;93072.03;;;15.55;99.74
6198;BME280;3132;42.622;23.328;2022-09-09T04:27:55;93070.25;;;15.64;99.63
6198;BME280;3132;42.622;23.328;2022-09-09T04:30:22;93067.50;;;15.69;99.04
6198;BME280;3132;42.622;23.328;2022-09-09T04:32:47;93067.88;;;15.76;97.44
6198;BME280;3132;42.622;23.328;2022-09-09T04:35:13;93068.66;;;15.76;97.87
6198;BME280;3132;42.622;23.328;2022-09-09T04:37:38;93070.75;;;15.88;97.20
6198;BME280;3132;42.622;23.328;2022-09-09T04:40:05;93064.94;;;15.77;98.15
6198;BME280;3132;42.622;23.328;2022-09-09T04:42:34;93091.81;;;15.88;98.28
6198;BME280;3132;42.622;23.328;2022-09-09T04:45:00;93092.28;;;15.68;99.29
6198;BME280;3132;42.622;23.328;2022-09-09T04:47:26;93097.19;;;16.05;97.83
6198;BME280;3132;42.622;23.328;2022-09-09T04:49:52;93090.72;;;16.11;96.78
6198;BME280;3132;42.622;23.328;2022-09-09T04:52:20;93078.75;;;16.27;96.33
6198;BME280;3132;42.622;23.328;2022-09-09T04:54:45;93065.78;;;16.39;95.58
6198;BME280;3132;42.622;23.328;2022-09-09T05:03:45;93059.75;;;16.39;95.34
6198;BME280;3132;42.622;23.328;2022-09-09T05:06:15;93061.84;;;16.50;96.28
6198;BME280;3132;42.622;23.328;2022-09-09T05:08:42;93049.03;;;16.66;95.37
6198;BME280;3132;42.622;23.328;2022-09-09T05:11:18;93046.78;;;16.81;94.27
6198;BME280;3132;42.622;23.328;2022-09-09T05:13:44;93039.34;;;16.83;94.69
6198;BME280;3132;42.622;23.328;2022-09-09T05:16:10;93049.53;;;16.68;93.91
6198;BME280;3132;42.622;23.328;2022-09-09T05:18:39;93058.59;;;16.92;92.32
6198;BME280;3132;42.622;23.328;2022-09-09T05:21:06;93073.25;;;17.15;91.98
6198;BME280;3132;42.622;23.328;2022-09-09T05:23:32;93046.19;;;17.49;88.27
6198;BME280;3132;42.622;23.328;2022-09-09T05:25:59;93041.53;;;17.46;87.70
6198;BME280;3132;42.622;23.328;2022-09-09T05:28:25;93044.56;;;17.22;88.65
6198;BME280;3132;42.622;23.328;2022-09-09T05:30:59;93045.31;;;17.14;90.20
6198;BME280;3132;42.622;23.328;2022-09-09T05:33:26;93046.00;;;17.45;89.14
6198;BME280;3132;42.622;23.328;2022-09-09T05:36:00;93049.91;;;17.56;87.52
6198;BME280;3132;42.622;23.328;2022-09-09T05:38:26;93063.28;;;17.60;87.43
6198;BME280;3132;42.622;23.328;2022-09-09T05:40:52;93057.66;;;17.53;87.18
6198;BME280;3132;42.622;23.328;2022-09-09T05:43:19;93043.09;;;17.73;86.39
6198;BME280;3132;42.622;23.328;2022-09-09T05:45:48;93065.13;;;17.77;85.24
6198;BME280;3132;42.622;23.328;2022-09-09T05:48:17;93066.84;;;17.73;86.07
6198;BME280;3132;42.622;23.328;2022-09-09T05:50:43;93077.72;;;17.80;86.27
6198;BME280;3132;42.622;23.328;2022-09-09T05:53:10;93079.56;;;18.05;85.42
6198;BME280;3132;42.622;23.328;2022-09-09T05:55:36;93073.78;;;18.37;82.01
6198;BME280;3132;42.622;23.328;2022-09-09T05:58:01;93078.47;;;18.31;82.57
6198;BME280;3132;42.622;23.328;2022-09-09T06:00:27;93076.88;;;18.56;80.71
6198;BME280;3132;42.622;23.328;2022-09-09T06:02:52;93063.19;;;18.54;80.64
6198;BME280;3132;42.622;23.328;2022-09-09T06:05:19;93075.50;;;18.33;81.19
6198;BME280;3132;42.622;23.328;2022-09-09T06:07:44;93088.81;;;18.62;80.17
6198;BME280;3132;42.622;23.328;2022-09-09T06:10:11;93078.28;;;18.45;80.79
6198;BME280;3132;42.622;23.328;2022-09-09T06:12:39;93101.72;;;18.72;79.76
6198;BME280;3132;42.622;23.328;2022-09-09T06:15:05;93101.81;;;18.92;78.00
6198;BME280;3132;42.622;23.328;2022-09-09T06:17:30;93098.31;;;19.09;76.64
6198;BME280;3132;42.622;23.328;2022-09-09T06:19:56;93093.44;;;18.82;78.16
6198;BME280;3132;42.622;23.328;2022-09-09T06:22:21;93092.78;;;18.85;77.85
6198;BME280;3132;42.622;23.328;2022-09-09T06:24:47;93093.47;;;18.73;77.51
6198;BME280;3132;42.622;23.328;2022-09-09T06:27:12;93082.38;;;19.17;75.60
6198;BME280;3132;42.622;23.328;2022-09-09T06:29:38;93090.47;;;19.21;75.90
6198;BME280;3132;42.622;23.328;2022-09-09T06:32:04;93093.44;;;19.49;75.11
6198;BME280;3132;42.622;23.328;2022-09-09T06:34:29;93093.19;;;19.42;74.43
6198;BME280;3132;42.622;23.328;2022-09-09T06:36:55;93094.09;;;19.75;73.69
6198;BME280;3132;42.622;23.328;2022-09-09T06:39:23;93074.03;;;19.65;74.22
6198;BME280;3132;42.622;23.328;2022-09-09T06:41:48;93087.00;;;19.58;73.49
6198;BME280;3132;42.622;23.328;2022-09-09T06:44:15;93089.41;;;19.92;73.46
6198;BME280;3132;42.622;23.328;2022-09-09T06:46:40;93083.59;;;19.78;73.05
6198;BME280;3132;42.622;23.328;2022-09-09T06:49:08;93092.84;;;19.72;73.14
6198;BME280;3132;42.622;23.328;2022-09-09T06:51:35;93105.00;;;19.73;72.25
6198;BME280;3132;42.622;23.328;2022-09-09T06:54:03;93110.59;;;20.21;70.37
6198;BME280;3132;42.622;23.328;2022-09-09T06:56:31;93109.47;;;20.22;69.85
6198;BME280;3132;42.622;23.328;2022-09-09T06:58:59;93112.31;;;20.17;70.89
6198;BME280;3132;42.622;23.328;2022-09-09T07:01:33;93105.81;;;20.47;69.20
6198;BME280;3132;42.622;23.328;2022-09-09T07:03:59;93109.94;;;20.57;68.85
6198;BME280;3132;42.622;23.328;2022-09-09T07:06:30;93103.31;;;20.30;70.17
6198;BME280;3132;42.622;23.328;2022-09-09T07:09:04;93109.81;;;20.53;71.41
6198;BME280;3132;42.622;23.328;2022-09-09T07:11:32;93120.38;;;21.19;66.77
6198;BME280;3132;42.622;23.328;2022-09-09T07:13:59;93113.41;;;21.14;66.69
6198;BME280;3132;42.622;23.328;2022-09-09T07:16:25;93107.13;;;21.31;65.89
6198;BME280;3132;42.622;23.328;2022-09-09T07:18:53;93103.00;;;21.21;65.90
6198;BME280;3132;42.622;23.328;2022-09-09T07:21:23;93113.09;;;20.38;69.15
6198;BME280;3132;42.622;23.328;2022-09-09T07:23:49;93110.34;;;20.92;67.56
6198;BME280;3132;42.622;23.328;2022-09-09T07:26:17;93108.66;;;21.44;65.35
6198;BME280;3132;42.622;23.328;2022-09-09T07:28:45;93099.88;;;21.43;65.86
6198;BME280;3132;42.622;23.328;2022-09-09T07:33:42;93097.03;;;21.24;66.75
6198;BME280;3132;42.622;23.328;2022-09-09T07:36:15;93095.81;;;21.82;64.70
6198;BME280;3132;42.622;23.328;2022-09-09T07:38:46;93093.38;;;21.77;64.40
6198;BME280;3132;42.622;23.328;2022-09-09T07:41:14;93094.47;;;21.64;66.16
6198;BME280;3132;42.622;23.328;2022-09-09T07:43:41;93092.88;;;21.87;65.42
6198;BME280;3132;42.622;23.328;2022-09-09T07:46:08;93108.00;;;22.10;63.46
6198;BME280;3132;42.622;23.328;2022-09-09T07:48:34;93106.53;;;22.25;63.94
6198;BME280;3132;42.622;23.328;2022-09-09T07:51:13;93110.41;;;21.88;64.37
6198;BME280;3132;42.622;23.328;2022-09-09T07:53:43;93120.13;;;22.08;63.88
6198;BME280;3132;42.622;23.328;2022-09-09T07:56:12;93111.50;;;21.99;64.47
6198;BME280;3132;42.622;23.328;2022-09-09T07:58:39;93107.56;;;22.20;63.54
6198;BME280;3132;42.622;23.328;2022-09-09T08:01:10;93104.69;;;22.53;63.46
6198;BME280;3132;42.622;23.328;2022-09-09T08:03:36;93106.63;;;22.84;63.33
6198;BME280;3132;42.622;23.328;2022-09-09T08:06:06;93111.72;;;23.20;60.90
6198;BME280;3132;42.622;23.328;2022-09-09T08:08:34;93113.53;;;23.00;60.59
6198;BME280;3132;42.622;23.328;2022-09-09T08:11:06;93110.44;;;23.14;60.76
6198;BME280;3132;42.622;23.328;2022-09-09T08:13:33;93117.91;;;23.08;61.13
6198;BME280;3132;42.622;23.328;2022-09-09T08:16:10;93115.09;;;23.17;59.53
6198;BME280;3132;42.622;23.328;2022-09-09T08:18:36;93106.31;;;23.16;59.75
6198;BME280;3132;42.622;23.328;2022-09-09T08:21:14;93113.09;;;23.14;60.90
6198;BME280;3132;42.622;23.328;2022-09-09T08:23:41;93114.50;;;23.23;60.60
6198;BME280;3132;42.622;23.328;2022-09-09T08:26:45;93111.31;;;23.33;58.76
6198;BME280;3132;42.622;23.328;2022-09-09T08:29:04;93121.78;;;22.52;61.58
6198;BME280;3132;42.622;23.328;2022-09-09T08:31:33;93115.25;;;23.08;59.15
6198;BME280;3132;42.622;23.328;2022-09-09T08:33:59;93109.78;;;23.48;58.21
6198;BME280;3132;42.622;23.328;2022-09-09T08:36:27;93107.94;;;23.67;56.39
6198;BME280;3132;42.622;23.328;2022-09-09T08:38:55;93119.63;;;23.78;56.77
6198;BME280;3132;42.622;23.328;2022-09-09T08:55:11;93113.13;;;23.60;57.76
6198;BME280;3132;42.622;23.328;2022-09-09T08:57:39;93111.78;;;23.86;55.86
6198;BME280;3132;42.622;23.328;2022-09-09T09:00:09;93113.03;;;24.07;55.00
6198;BME280;3132;42.622;23.328;2022-09-09T09:03:15;93105.81;;;24.27;53.72
6198;BME280;3132;42.622;23.328;2022-09-09T09:06:34;93100.94;;;23.78;55.18
6198;BME280;3132;42.622;23.328;2022-09-09T09:08:51;93110.88;;;24.51;54.81
6198;BME280;3132;42.622;23.328;2022-09-09T09:11:18;93111.59;;;24.48;53.42
6198;BME280;3132;42.622;23.328;2022-09-09T09:13:58;93118.75;;;24.63;51.59
6198;BME280;3132;42.622;23.328;2022-09-09T09:16:34;93112.34;;;24.10;53.33
6198;BME280;3132;42.622;23.328;2022-09-09T09:19:04;93099.34;;;24.09;54.07
6198;BME280;3132;42.622;23.328;2022-09-09T09:21:43;93106.31;;;24.32;53.28
6198;BME280;3132;42.622;23.328;2022-09-09T09:24:20;93096.16;;;23.68;55.55
6198;BME280;3132;42.622;23.328;2022-09-09T09:26:48;93105.63;;;24.54;53.09
6198;BME280;3132;42.622;23.328;2022-09-09T09:29:17;93109.19;;;24.43;53.22
6198;BME280;3132;42.622;23.328;2022-09-09T09:31:45;93106.34;;;23.98;55.29
6198;BME280;3132;42.622;23.328;2022-09-09T09:34:13;93110.81;;;23.94;53.91
6198;BME280;3132;42.622;23.328;2022-09-09T09:36:41;93107.50;;;23.97;53.71
6198;BME280;3132;42.622;23.328;2022-09-09T09:39:07;93104.16;;;24.19;52.53
6198;BME280;3132;42.622;23.328;2022-09-09T09:41:42;93092.63;;;24.34;52.04
6198;BME280;3132;42.622;23.328;2022-09-09T09:46:51;93102.31;;;24.42;52.77
6198;BME280;3132;42.622;23.328;2022-09-09T09:49:17;93091.22;;;24.21;52.60
6198;BME280;3132;42.622;23.328;2022-09-09T09:51:43;93093.00;;;25.15;51.10
6198;BME280;3132;42.622;23.328;2022-09-09T09:56:41;93093.47;;;24.98;51.24
6198;BME280;3132;42.622;23.328;2022-09-09T09:59:34;93088.16;;;25.21;47.78
6198;BME280;3132;42.622;23.328;2022-09-09T10:04:44;93088.63;;;25.04;48.73
6198;BME280;3132;42.622;23.328;2022-09-09T10:07:21;93079.41;;;24.60;50.64
6198;BME280;3132;42.622;23.328;2022-09-09T10:09:56;93086.00;;;24.47;50.36
6198;BME280;3132;42.622;23.328;2022-09-09T10:12:48;93089.53;;;24.70;49.61
6198;BME280;3132;42.622;23.328;2022-09-09T10:23:26;93097.00;;;24.42;50.79
6198;BME280;3132;42.622;23.328;2022-09-09T10:26:14;93102.44;;;24.49;50.18
6198;BME280;3132;42.622;23.328;2022-09-09T10:29:06;93096.25;;;24.07;53.17
6198;BME280;3132;42.622;23.328;2022-09-09T10:37:24;93078.91;;;23.82;53.21
6198;BME280;3132;42.622;23.328;2022-09-09T10:42:45;93097.66;;;24.01;52.79
6198;BME280;3132;42.622;23.328;2022-09-09T10:45:29;93097.13;;;23.60;52.49
6198;BME280;3132;42.622;23.328;2022-09-09T10:54:09;93103.28;;;24.15;52.29
6198;BME280;3132;42.622;23.328;2022-09-09T10:56:11;93056.47;;;23.83;52.43
6198;BME280;3132;42.622;23.328;2022-09-09T11:01:11;93078.91;;;23.97;53.69
6198;BME280;3132;42.622;23.328;2022-09-09T11:03:40;93092.31;;;23.35;54.79
6198;BME280;3132;42.622;23.328;2022-09-09T11:06:15;93097.03;;;23.57;54.40
6198;BME280;3132;42.622;23.328;2022-09-09T11:08:43;93099.69;;;23.57;55.74
6198;BME280;3132;42.622;23.328;2022-09-09T11:11:19;93095.56;;;22.82;56.69
6198;BME280;3132;42.622;23.328;2022-09-09T11:14:17;93099.09;;;23.01;57.06
6198;BME280;3132;42.622;23.328;2022-09-09T11:17:09;93095.31;;;23.49;57.23
6198;BME280;3132;42.622;23.328;2022-09-09T11:19:40;93095.34;;;23.33;54.57
6198;BME280;3132;42.622;23.328;2022-09-09T11:22:27;93087.25;;;23.80;54.48
6198;BME280;3132;42.622;23.328;2022-09-09T11:25:14;93075.38;;;23.93;55.60
6198;BME280;3132;42.622;23.328;2022-09-09T11:33:25;93067.25;;;25.04;52.69
6198;BME280;3132;42.622;23.328;2022-09-09T11:38:47;93052.16;;;24.13;54.37
6198;BME280;3132;42.622;23.328;2022-09-09T11:41:14;93060.09;;;23.74;55.86
6198;BME280;3132;42.622;23.328;2022-09-09T11:43:45;93061.50;;;24.03;54.90
6198;BME280;3132;42.622;23.328;2022-09-09T11:46:15;93045.72;;;24.14;54.37
6198;BME280;3132;42.622;23.328;2022-09-09T11:48:57;93041.13;;;24.33;54.26
6198;BME280;3132;42.622;23.328;2022-09-09T11:51:27;93012.38;;;24.46;53.90
6198;BME280;3132;42.622;23.328;2022-09-09T11:53:56;92992.22;;;24.48;52.94
6198;BME280;3132;42.622;23.328;2022-09-09T11:56:43;93003.31;;;24.50;54.81
6198;BME280;3132;42.622;23.328;2022-09-09T12:02:10;93007.78;;;24.65;57.71
6198;BME280;3132;42.622;23.328;2022-09-09T12:05:07;93028.13;;;24.70;55.83
6198;BME280;3132;42.622;23.328;2022-09-09T12:07:52;93020.59;;;24.98;53.42
6198;BME280;3132;42.622;23.328;2022-09-09T12:10:23;93022.00;;;25.14;52.15
6198;BME280;3132;42.622;23.328;2022-09-09T12:12:49;93008.03;;;25.24;52.93
6198;BME280;3132;42.622;23.328;2022-09-09T12:15:24;93010.13;;;25.12;52.12
6198;BME280;3132;42.622;23.328;2022-09-09T12:17:54;93001.47;;;24.96;52.02
6198;BME280;3132;42.622;23.328;2022-09-09T12:20:41;93011.06;;;25.00;52.80
6198;BME280;3132;42.622;23.328;2022-09-09T12:23:22;92993.16;;;25.01;52.96
6198;BME280;3132;42.622;23.328;2022-09-09T12:26:07;93002.97;;;25.19;52.33
6198;BME280;3132;42.622;23.328;2022-09-09T12:29:01;92996.75;;;25.12;52.05
6198;BME280;3132;42.622;23.328;2022-09-09T12:34:11;92997.19;;;24.91;52.95
6198;BME280;3132;42.622;23.328;2022-09-09T12:36:40;92973.84;;;24.66;54.00
6198;BME280;3132;42.622;23.328;2022-09-09T12:39:19;92963.03;;;24.59;53.49
6198;BME280;3132;42.622;23.328;2022-09-09T12:41:53;92977.28;;;24.89;53.22
6198;BME280;3132;42.622;23.328;2022-09-09T12:44:23;92960.38;;;24.81;52.55
6198;BME280;3132;42.622;23.328;2022-09-09T12:46:49;92941.38;;;24.41;53.54
6198;BME280;3132;42.622;23.328;2022-09-09T12:49:30;92978.78;;;24.86;56.40
6198;BME280;3132;42.622;23.328;2022-09-09T12:52:01;92989.19;;;25.17;55.68
6198;BME280;3132;42.622;23.328;2022-09-09T12:54:27;92955.94;;;25.15;52.70
6198;BME280;3132;42.622;23.328;2022-09-09T12:56:53;92973.16;;;25.40;52.89
6198;BME280;3132;42.622;23.328;2022-09-09T12:59:34;92945.63;;;25.40;52.30
6198;BME280;3132;42.622;23.328;2022-09-09T13:02:00;92936.97;;;25.50;52.22
6198;BME280;3132;42.622;23.328;2022-09-09T13:04:25;92953.72;;;25.43;52.19
6198;BME280;3132;42.622;23.328;2022-09-09T13:06:51;92966.66;;;25.41;52.54
6198;BME280;3132;42.622;23.328;2022-09-09T13:09:20;92950.09;;;25.32;52.49
6198;BME280;3132;42.622;23.328;2022-09-09T13:11:54;92946.56;;;25.28;52.29
6198;BME280;3132;42.622;23.328;2022-09-09T13:14:33;92955.63;;;25.20;51.79
6198;BME280;3132;42.622;23.328;2022-09-09T13:17:04;92953.75;;;25.47;52.00
6198;BME280;3132;42.622;23.328;2022-09-09T13:19:34;92954.88;;;25.46;53.74
6198;BME280;3132;42.622;23.328;2022-09-09T13:22:12;92948.72;;;25.71;50.30
6198;BME280;3132;42.622;23.328;2022-09-09T13:24:38;92920.47;;;25.44;52.32
6198;BME280;3132;42.622;23.328;2022-09-09T13:27:19;92950.22;;;25.69;51.88
6198;BME280;3132;42.622;23.328;2022-09-09T13:29:53;92937.63;;;25.69;51.83
6198;BME280;3132;42.622;23.328;2022-09-09T13:32:22;92887.25;;;25.45;52.33
6198;BME280;3132;42.622;23.328;2022-09-09T13:34:58;92931.91;;;25.71;52.13
6198;BME280;3132;42.622;23.328;2022-09-09T13:39:58;92909.13;;;25.51;51.49
6198;BME280;3132;42.622;23.328;2022-09-09T13:42:27;92930.59;;;25.58;51.02
6198;BME280;3132;42.622;23.328;2022-09-09T13:44:53;92935.16;;;25.31;54.58
6198;BME280;3132;42.622;23.328;2022-09-09T13:47:36;92915.94;;;25.22;55.38
6198;BME280;3132;42.622;23.328;2022-09-09T13:50:25;92919.69;;;25.40;55.90
6198;BME280;3132;42.622;23.328;2022-09-09T13:52:55;92918.66;;;25.52;55.49
6198;BME280;3132;42.622;23.328;2022-09-09T13:55:24;92898.63;;;25.68;52.73
6198;BME280;3132;42.622;23.328;2022-09-09T13:57:51;92912.09;;;26.08;50.21
6198;BME280;3132;42.622;23.328;2022-09-09T14:00:18;92918.44;;;25.97;50.55
6198;BME280;3132;42.622;23.328;2022-09-09T14:02:43;92914.03;;;25.78;50.66
6198;BME280;3132;42.622;23.328;2022-09-09T14:05:09;92872.94;;;25.31;50.71
6198;BME280;3132;42.622;23.328;2022-09-09T14:07:37;92918.22;;;25.46;52.05
6198;BME280;3132;42.622;23.328;2022-09-09T14:10:04;92927.06;;;25.50;53.27
6198;BME280;3132;42.622;23.328;2022-09-09T14:12:29;92924.47;;;25.57;54.22
6198;BME280;3132;42.622;23.328;2022-09-09T14:14:55;92917.00;;;25.73;52.49
6198;BME280;3132;42.622;23.328;2022-09-09T14:17:20;92887.22;;;25.42;53.49
6198;BME280;3132;42.622;23.328;2022-09-09T14:19:47;92912.34;;;25.37;52.68
6198;BME280;3132;42.622;23.328;2022-09-09T14:22:12;92905.25;;;25.22;53.19
6198;BME280;3132;42.622;23.328;2022-09-09T14:24:38;92897.13;;;24.85;54.80
6198;BME280;3132;42.622;23.328;2022-09-09T14:27:03;92908.56;;;24.86;56.10
6198;BME280;3132;42.622;23.328;2022-09-09T14:29:28;92902.09;;;24.87;59.30
6198;BME280;3132;42.622;23.328;2022-09-09T14:31:54;92896.47;;;24.95;59.03
6198;BME280;3132;42.622;23.328;2022-09-09T14:34:19;92898.59;;;25.09;57.29
6198;BME280;3132;42.622;23.328;2022-09-09T14:36:45;92900.69;;;25.22;56.15
6198;BME280;3132;42.622;23.328;2022-09-09T14:39:10;92899.94;;;25.52;54.31
6198;BME280;3132;42.622;23.328;2022-09-09T14:41:36;92897.00;;;25.31;56.01
6198;BME280;3132;42.622;23.328;2022-09-09T14:44:01;92894.16;;;25.20;54.10
6198;BME280;3132;42.622;23.328;2022-09-09T14:46:27;92891.22;;;25.28;53.77
6198;BME280;3132;42.622;23.328;2022-09-09T14:48:52;92866.25;;;25.17;52.66
6198;BME280;3132;42.622;23.328;2022-09-09T14:51:20;92882.63;;;24.86;55.73
6198;BME280;3132;42.622;23.328;2022-09-09T14:53:47;92888.81;;;24.68;57.42
6198;BME280;3132;42.622;23.328;2022-09-09T14:56:19;92884.63;;;24.67;55.69
6198;BME280;3132;42.622;23.328;2022-09-09T14:58:45;92866.56;;;24.38;56.00
6198;BME280;3132;42.622;23.328;2022-09-09T15:01:14;92876.75;;;24.10;58.43
6198;BME280;3132;42.622;23.328;2022-09-09T15:03:40;92905.38;;;24.09;59.43
6198;BME280;3132;42.622;23.328;2022-09-09T15:06:08;92907.41;;;23.97;58.96
6198;BME280;3132;42.622;23.328;2022-09-09T15:08:35;92902.91;;;23.82;58.88
6198;BME280;3132;42.622;23.328;2022-09-09T15:11:02;92916.66;;;23.64;62.32
6198;BME280;3132;42.622;23.328;2022-09-09T15:13:28;92907.47;;;23.43;63.91
6198;BME280;3132;42.622;23.328;2022-09-09T15:15:53;92913.94;;;23.42;64.17
6198;BME280;3132;42.622;23.328;2022-09-09T15:18:19;92916.72;;;23.30;65.50
6198;BME280;3132;42.622;23.328;2022-09-09T15:20:45;92882.97;;;22.68;66.54
6198;BME280;3132;42.622;23.328;2022-09-09T15:23:11;92916.69;;;22.95;67.59
6198;BME280;3132;42.622;23.328;2022-09-09T15:25:37;92914.13;;;22.99;67.59